Time;durP1;ratioP1;P1;durP2;ratioP2;P2;SDS_P1;SDS_P2;PMS_P1;PMS_P2;Temp;Humidity;BMP_temperature;BMP_pressure;BME280_temperature;BME280_humidity;BME280_pressure;Samples;Min_cycle;Max_cycle;Signal;HPM_P1;HPM_P2
2022/04/06 00:00:55;;;;;;;0.10;0.10;;;;;;;;;;4954307;28;20618;-75
2022/04/06 00:03:22;;;;;;;0.10;0.10;;;;;;;;;;4945788;28;20648;-75
2022/04/06 00:05:49;;;;;;;0.00;0.00;;;;;;;;;;4965433;28;20668;-76
2022/04/06 00:08:16;;;;;;;0.10;0.10;;;;;;;;;;4960921;28;20606;-77
2022/04/06 00:10:46;;;;;;;0.10;0.10;;;;;;;;;;4957961;28;20625;-78
2022/04/06 00:13:14;;;;;;;0.10;0.10;;;;;;;;;;4946388;28;20625;-78
2022/04/06 00:15:42;;;;;;;0.10;0.10;;;;;;;;;;4955712;28;20677;-77
2022/04/06 00:18:10;;;;;;;0.10;0.10;;;;;;;;;;4960733;28;20684;-78
2022/04/06 00:20:37;;;;;;;0.10;0.10;;;;;;;;;;4962001;28;20629;-77
2022/04/06 00:23:07;;;;;;;0.10;0.10;;;;;;;;;;4945430;28;20629;-77
2022/04/06 00:25:35;;;;;;;0.10;0.10;;;;;;;;;;4960600;28;20732;-77
2022/04/06 00:28:02;;;;;;;0.10;0.10;;;;;;;;;;4940946;28;20724;-77
2022/04/06 00:30:30;;;;;;;0.10;0.10;;;;;;;;;;4964098;28;20613;-77
2022/04/06 00:32:58;;;;;;;0.10;0.10;;;;;;;;;;4945490;28;20621;-77
2022/04/06 00:35:32;;;;;;;0.10;0.10;;;;;;;;;;4951931;28;20669;-76
2022/04/06 00:38:00;;;;;;;0.00;0.00;;;;;;;;;;4957582;28;20654;-75
2022/04/06 00:40:27;;;;;;;0.10;0.10;;;;;;;;;;4958860;28;20634;-76
2022/04/06 00:42:55;;;;;;;0.10;0.10;;;;;;;;;;4956598;28;20637;-75
2022/04/06 00:45:23;;;;;;;0.10;0.10;;;;;;;;;;4962297;28;20657;-75
2022/04/06 00:47:51;;;;;;;0.10;0.10;;;;;;;;;;4963216;28;20637;-75
2022/04/06 00:50:20;;;;;;;0.10;0.10;;;;;;;;;;4954178;28;20640;-75
2022/04/06 00:52:49;;;;;;;0.10;0.10;;;;;;;;;;4959189;28;20637;-74
2022/04/06 00:55:17;;;;;;;0.00;0.00;;;;;;;;;;4960553;28;20681;-75
2022/04/06 00:57:45;;;;;;;0.10;0.10;;;;;;;;;;4956943;28;20634;-75
2022/04/06 01:00:13;;;;;;;0.10;0.10;;;;;;;;;;4945643;28;20733;-75
2022/04/06 01:02:41;;;;;;;0.10;0.10;;;;;;;;;;4952418;28;20629;-75
2022/04/06 01:05:10;;;;;;;0.10;0.10;;;;;;;;;;4966260;28;20656;-75
2022/04/06 01:07:39;;;;;;;0.10;0.10;;;;;;;;;;4957791;28;20626;-75
2022/04/06 01:10:07;;;;;;;0.10;0.10;;;;;;;;;;4963617;28;20633;-76
2022/04/06 01:12:38;;;;;;;0.10;0.10;;;;;;;;;;4955717;28;20629;-77
2022/04/06 01:15:24;;;;;;;0.00;0.00;;;;;;;;;;4961033;28;20673;-78
2022/04/06 01:18:31;;;;;;;0.00;0.00;;;;;;;;;;4950218;28;20632;-78
2022/04/06 01:21:11;;;;;;;0.10;0.10;;;;;;;;;;4952256;28;20622;-77
2022/04/06 01:23:45;;;;;;;0.10;0.10;;;;;;;;;;4963318;28;20625;-78
2022/04/06 01:26:15;;;;;;;0.10;0.10;;;;;;;;;;4942299;28;20743;-78
2022/04/06 01:28:43;;;;;;;0.10;0.10;;;;;;;;;;4958436;28;20721;-77
2022/04/06 01:31:11;;;;;;;0.10;0.10;;;;;;;;;;4957720;28;20634;-77
2022/04/06 01:33:39;;;;;;;0.10;0.10;;;;;;;;;;4958926;28;20641;-77
2022/04/06 01:36:07;;;;;;;0.10;0.10;;;;;;;;;;4956345;28;20745;-77
2022/04/06 01:38:34;;;;;;;0.00;0.00;;;;;;;;;;4960620;28;20630;-77
2022/04/06 01:41:04;;;;;;;0.10;0.10;;;;;;;;;;4963671;28;20758;-77
2022/04/06 01:43:32;;;;;;;0.00;0.00;;;;;;;;;;4957216;28;20632;-78
2022/04/06 01:46:08;;;;;;;0.10;0.10;;;;;;;;;;4949689;28;20727;-79
2022/04/06 02:05:26;;;;;;;0.10;0.10;;;;;;;;;;4941635;22;20788;-69
2022/04/06 02:07:53;;;;;;;0.10;0.10;;;;;;;;;;5022782;28;20607;-68
2022/04/06 02:10:21;;;;;;;0.10;0.10;;;;;;;;;;5025475;28;20613;-69
2022/04/06 02:12:48;;;;;;;0.10;0.10;;;;;;;;;;4992169;28;20671;-68
2022/04/06 02:15:16;;;;;;;0.10;0.10;;;;;;;;;;5021551;28;20748;-69
2022/04/06 02:17:44;;;;;;;0.00;0.00;;;;;;;;;;5020227;28;20610;-69
2022/04/06 02:20:11;;;;;;;0.10;0.10;;;;;;;;;;5008844;28;20640;-68
2022/04/06 02:22:40;;;;;;;0.10;0.10;;;;;;;;;;5024614;28;20704;-69
2022/04/06 02:25:08;;;;;;;0.10;0.10;;;;;;;;;;4998344;28;20673;-69
2022/04/06 02:27:35;;;;;;;0.10;0.10;;;;;;;;;;5003738;28;20625;-69
2022/04/06 02:30:03;;;;;;;0.10;0.10;;;;;;;;;;4999671;28;20653;-68
2022/04/06 02:32:30;;;;;;;0.10;0.10;;;;;;;;;;5012188;28;20622;-69
2022/04/06 02:34:57;;;;;;;0.10;0.10;;;;;;;;;;5023528;28;20702;-69
2022/04/06 02:37:25;;;;;;;0.10;0.10;;;;;;;;;;5014816;28;20677;-69
2022/04/06 02:39:54;;;;;;;0.10;0.10;;;;;;;;;;5026721;28;20678;-69
2022/04/06 02:42:21;;;;;;;0.10;0.10;;;;;;;;;;4997192;28;20651;-70
2022/04/06 02:44:48;;;;;;;0.10;0.10;;;;;;;;;;5009422;28;20701;-69
2022/04/06 02:47:16;;;;;;;0.10;0.10;;;;;;;;;;5003695;28;20672;-69
2022/04/06 02:49:43;;;;;;;0.10;0.10;;;;;;;;;;5002341;28;20639;-68
2022/04/06 02:52:11;;;;;;;0.00;0.00;;;;;;;;;;5009646;28;20625;-69
2022/04/06 02:54:38;;;;;;;0.10;0.10;;;;;;;;;;4995308;28;20717;-68
2022/04/06 02:57:07;;;;;;;0.10;0.10;;;;;;;;;;4994990;28;20627;-68
2022/04/06 02:59:34;;;;;;;0.10;0.10;;;;;;;;;;5004974;28;20715;-69
2022/04/06 03:02:01;;;;;;;0.10;0.10;;;;;;;;;;5022633;28;20644;-68
2022/04/06 03:04:28;;;;;;;0.10;0.10;;;;;;;;;;4996636;28;20765;-68
2022/04/06 03:06:55;;;;;;;0.10;0.10;;;;;;;;;;5005924;28;20718;-69
2022/04/06 03:09:22;;;;;;;0.10;0.10;;;;;;;;;;4999765;28;20680;-68
2022/04/06 03:11:50;;;;;;;0.07;0.07;;;;;;;;;;5021073;28;21175;-70
2022/04/06 03:14:18;;;;;;;0.10;0.10;;;;;;;;;;5023937;28;20653;-70
2022/04/06 03:16:46;;;;;;;0.10;0.10;;;;;;;;;;5012046;28;20645;-69
2022/04/06 03:19:13;;;;;;;0.10;0.10;;;;;;;;;;5022012;28;20693;-69
2022/04/06 03:21:41;;;;;;;0.10;0.10;;;;;;;;;;5017436;28;20637;-69
2022/04/06 03:24:08;;;;;;;0.10;0.10;;;;;;;;;;5012147;28;20705;-69
2022/04/06 03:26:36;;;;;;;0.10;0.10;;;;;;;;;;5017363;28;20642;-69
2022/04/06 03:29:03;;;;;;;0.10;0.10;;;;;;;;;;5008091;28;20638;-70
2022/04/06 03:31:32;;;;;;;0.10;0.10;;;;;;;;;;5007390;28;20610;-70
2022/04/06 03:33:59;;;;;;;0.10;0.10;;;;;;;;;;4998452;28;20650;-69
2022/04/06 03:36:27;;;;;;;0.10;0.10;;;;;;;;;;5027926;28;20654;-70
2022/04/06 03:38:54;;;;;;;0.10;0.10;;;;;;;;;;5002720;28;20615;-70
2022/04/06 03:41:22;;;;;;;0.00;0.00;;;;;;;;;;5021194;28;21099;-69
2022/04/06 03:43:49;;;;;;;0.10;0.10;;;;;;;;;;5006505;28;20760;-70
2022/04/06 03:46:16;;;;;;;0.10;0.10;;;;;;;;;;5011309;28;20691;-70
2022/04/06 03:48:45;;;;;;;0.07;0.07;;;;;;;;;;5007898;28;20660;-70
2022/04/06 03:51:13;;;;;;;0.10;0.10;;;;;;;;;;5024409;28;20617;-70
2022/04/06 03:53:40;;;;;;;0.10;0.10;;;;;;;;;;5003151;28;20681;-69
2022/04/06 03:56:07;;;;;;;0.10;0.10;;;;;;;;;;4997604;28;20695;-70
2022/04/06 03:58:35;;;;;;;0.10;0.10;;;;;;;;;;5003855;28;20622;-70
2022/04/06 04:01:02;;;;;;;0.10;0.10;;;;;;;;;;5002998;28;20666;-70
2022/04/06 04:03:29;;;;;;;0.10;0.10;;;;;;;;;;5005559;28;20750;-71
2022/04/06 04:05:58;;;;;;;0.10;0.10;;;;;;;;;;4996879;28;20642;-69
2022/04/06 04:08:26;;;;;;;0.10;0.10;;;;;;;;;;5000255;28;20645;-69
2022/04/06 04:10:53;;;;;;;0.10;0.10;;;;;;;;;;5020591;28;21180;-70
2022/04/06 04:13:21;;;;;;;0.10;0.10;;;;;;;;;;5006536;28;20814;-71
2022/04/06 04:15:48;;;;;;;0.10;0.10;;;;;;;;;;5006228;28;20649;-70
2022/04/06 04:18:16;;;;;;;0.10;0.10;;;;;;;;;;5019650;28;20730;-71
2022/04/06 04:20:45;;;;;;;0.10;0.10;;;;;;;;;;5019271;28;20603;-71
2022/04/06 04:23:14;;;;;;;0.00;0.00;;;;;;;;;;5001277;28;20659;-70
2022/04/06 04:25:42;;;;;;;0.10;0.10;;;;;;;;;;5025437;28;20617;-71
2022/04/06 04:28:09;;;;;;;0.10;0.10;;;;;;;;;;5005392;28;20724;-70
2022/04/06 04:30:37;;;;;;;0.10;0.10;;;;;;;;;;5018747;28;20611;-71
2022/04/06 04:33:04;;;;;;;0.10;0.10;;;;;;;;;;5006307;28;20761;-69
2022/04/06 04:35:32;;;;;;;0.10;0.10;;;;;;;;;;5022745;28;21438;-70
2022/04/06 04:37:59;;;;;;;0.00;0.00;;;;;;;;;;5007234;28;20650;-75
2022/04/06 04:40:29;;;;;;;0.10;0.10;;;;;;;;;;5001619;28;20730;-74
2022/04/06 04:42:57;;;;;;;0.10;0.10;;;;;;;;;;4999136;28;20673;-74
2022/04/06 04:45:24;;;;;;;0.10;0.10;;;;;;;;;;5017652;28;20642;-77
2022/04/06 04:47:52;;;;;;;0.10;0.10;;;;;;;;;;5017011;28;20610;-73
2022/04/06 04:50:19;;;;;;;0.10;0.10;;;;;;;;;;5014602;28;20618;-73
2022/04/06 04:52:46;;;;;;;0.10;0.10;;;;;;;;;;5011867;28;20756;-73
2022/04/06 04:55:14;;;;;;;0.00;0.00;;;;;;;;;;5000303;28;20684;-73
2022/04/06 04:57:43;;;;;;;0.10;0.10;;;;;;;;;;5017449;28;21176;-70
2022/04/06 05:00:11;;;;;;;0.10;0.10;;;;;;;;;;4998194;28;20694;-71
2022/04/06 05:02:39;;;;;;;0.07;0.07;;;;;;;;;;5004427;28;20654;-74
2022/04/06 05:05:06;;;;;;;0.10;0.10;;;;;;;;;;4998590;28;20634;-73
2022/04/06 05:07:37;;;;;;;0.10;0.10;;;;;;;;;;5015592;28;20625;-74
2022/04/06 05:10:05;;;;;;;0.10;0.10;;;;;;;;;;5021957;28;20617;-74
2022/04/06 05:12:32;;;;;;;0.10;0.10;;;;;;;;;;5002119;28;20641;-73
2022/04/06 05:15:01;;;;;;;0.10;0.10;;;;;;;;;;5005611;28;20622;-74
2022/04/06 05:17:28;;;;;;;0.10;0.10;;;;;;;;;;4998943;28;20762;-72
2022/04/06 05:19:56;;;;;;;0.10;0.10;;;;;;;;;;5021852;28;20614;-74
2022/04/06 05:22:24;;;;;;;0.10;0.10;;;;;;;;;;5021863;28;20603;-75
2022/04/06 05:24:53;;;;;;;0.10;0.10;;;;;;;;;;5018019;28;20734;-76
2022/04/06 05:27:20;;;;;;;0.10;0.10;;;;;;;;;;5009879;28;20678;-75
2022/04/06 05:29:47;;;;;;;0.10;0.10;;;;;;;;;;5025616;28;20614;-76
2022/04/06 05:32:17;;;;;;;0.10;0.10;;;;;;;;;;5003944;28;20638;-76
2022/04/06 05:34:44;;;;;;;0.10;0.10;;;;;;;;;;5010606;28;20668;-75
2022/04/06 05:37:12;;;;;;;0.00;0.00;;;;;;;;;;5029461;28;20657;-75
2022/04/06 05:39:39;;;;;;;0.10;0.10;;;;;;;;;;5002351;28;20630;-75
2022/04/06 05:42:06;;;;;;;0.10;0.10;;;;;;;;;;5012723;28;20617;-75
2022/04/06 05:44:34;;;;;;;0.10;0.10;;;;;;;;;;5008190;28;20653;-75
2022/04/06 05:47:02;;;;;;;0.10;0.10;;;;;;;;;;5034563;28;20715;-75
2022/04/06 05:49:31;;;;;;;0.10;0.10;;;;;;;;;;5036351;28;20614;-75
2022/04/06 05:51:59;;;;;;;0.13;0.13;;;;;;;;;;5025753;28;20640;-75
2022/04/06 05:54:26;;;;;;;0.10;0.10;;;;;;;;;;5006705;28;20658;-76
2022/04/06 05:56:54;;;;;;;0.10;0.10;;;;;;;;;;5005333;28;20663;-75
2022/04/06 05:59:22;;;;;;;0.10;0.10;;;;;;;;;;4998225;28;20722;-74
2022/04/06 06:01:50;;;;;;;0.10;0.10;;;;;;;;;;5018458;28;20632;-75
2022/04/06 06:04:17;;;;;;;0.10;0.10;;;;;;;;;;5000410;28;20670;-75
2022/04/06 06:06:46;;;;;;;0.10;0.10;;;;;;;;;;5006834;28;20698;-74
2022/04/06 06:09:14;;;;;;;0.00;0.00;;;;;;;;;;5015480;28;20608;-74
2022/04/06 06:11:41;;;;;;;0.10;0.10;;;;;;;;;;5022212;28;20634;-75
2022/04/06 06:14:09;;;;;;;0.10;0.10;;;;;;;;;;5005543;28;20646;-75
2022/04/06 06:16:37;;;;;;;0.10;0.10;;;;;;;;;;5031207;28;20657;-74
2022/04/06 06:19:05;;;;;;;0.10;0.10;;;;;;;;;;5008441;28;20724;-75
2022/04/06 06:21:32;;;;;;;0.10;0.10;;;;;;;;;;5007337;28;20641;-74
2022/04/06 06:24:05;;;;;;;0.10;0.10;;;;;;;;;;5013471;28;20665;-75
2022/04/06 06:26:32;;;;;;;0.10;0.10;;;;;;;;;;5017407;28;21004;-75
2022/04/06 06:28:59;;;;;;;0.10;0.10;;;;;;;;;;5027575;28;20637;-75
2022/04/06 06:31:28;;;;;;;0.10;0.10;;;;;;;;;;5012675;28;20623;-75
2022/04/06 06:33:56;;;;;;;0.10;0.10;;;;;;;;;;5005503;28;20761;-75
2022/04/06 06:36:24;;;;;;;0.10;0.10;;;;;;;;;;4997977;28;20670;-74
2022/04/06 06:38:51;;;;;;;0.10;0.10;;;;;;;;;;5004958;28;21004;-74
2022/04/06 06:41:20;;;;;;;0.10;0.10;;;;;;;;;;5000036;28;20623;-74
2022/04/06 06:43:49;;;;;;;0.10;0.10;;;;;;;;;;5005036;28;20671;-75
2022/04/06 06:46:16;;;;;;;0.10;0.10;;;;;;;;;;5002419;28;20630;-74
2022/04/06 06:48:43;;;;;;;0.00;0.00;;;;;;;;;;5027438;28;20696;-74
2022/04/06 06:51:11;;;;;;;0.10;0.10;;;;;;;;;;5005851;28;20657;-74
2022/04/06 06:53:39;;;;;;;0.10;0.10;;;;;;;;;;5025841;28;20730;-75
2022/04/06 06:56:06;;;;;;;0.00;0.00;;;;;;;;;;5007421;28;20656;-73
2022/04/06 06:58:35;;;;;;;0.10;0.10;;;;;;;;;;5006541;28;20621;-74
2022/04/06 07:01:03;;;;;;;0.07;0.07;;;;;;;;;;5011489;28;20728;-74
2022/04/06 07:03:31;;;;;;;0.10;0.10;;;;;;;;;;5007570;28;20685;-73
2022/04/06 07:05:58;;;;;;;0.10;0.10;;;;;;;;;;4999935;28;20637;-74
2022/04/06 07:08:26;;;;;;;0.10;0.10;;;;;;;;;;5011427;28;20746;-74
2022/04/06 07:10:53;;;;;;;0.10;0.10;;;;;;;;;;5004643;28;20705;-74
2022/04/06 07:13:21;;;;;;;0.10;0.10;;;;;;;;;;5007183;28;21258;-74
2022/04/06 07:15:49;;;;;;;0.10;0.10;;;;;;;;;;5013053;28;20629;-74
2022/04/06 07:20:44;;;;;;;0.10;0.10;;;;;;;;;;4984925;28;20736;-71
2022/04/06 07:23:12;;;;;;;0.00;0.00;;;;;;;;;;4966038;28;20775;-70
2022/04/06 07:25:40;;;;;;;0.00;0.00;;;;;;;;;;4970387;28;20642;-70
2022/04/06 07:28:08;;;;;;;0.10;0.10;;;;;;;;;;4987522;28;20674;-70
2022/04/06 07:30:35;;;;;;;0.10;0.10;;;;;;;;;;4984834;28;20707;-70
2022/04/06 07:33:04;;;;;;;0.10;0.10;;;;;;;;;;4960747;28;20661;-70
2022/04/06 07:35:32;;;;;;;0.00;0.00;;;;;;;;;;4964229;28;20655;-71
2022/04/06 07:37:59;;;;;;;0.10;0.10;;;;;;;;;;4966150;28;20663;-69
2022/04/06 07:40:27;;;;;;;0.00;0.00;;;;;;;;;;4967974;28;20259;-72
2022/04/06 07:42:55;;;;;;;0.00;0.00;;;;;;;;;;4962635;28;21275;-72
2022/04/06 07:45:24;;;;;;;0.10;0.10;;;;;;;;;;4962573;28;20238;-71
2022/04/06 07:47:53;;;;;;;0.10;0.10;;;;;;;;;;4969338;28;20716;-71
2022/04/06 07:50:22;;;;;;;0.10;0.10;;;;;;;;;;4962514;28;20628;-69
2022/04/06 07:52:50;;;;;;;0.10;0.10;;;;;;;;;;4983289;28;20691;-71
2022/04/06 07:55:19;;;;;;;0.10;0.10;;;;;;;;;;4967403;28;20624;-71
2022/04/06 07:57:46;;;;;;;0.10;0.10;;;;;;;;;;4967250;28;20304;-71
2022/04/06 08:00:16;;;;;;;0.10;0.10;;;;;;;;;;4977977;28;20205;-71
2022/04/06 08:02:44;;;;;;;0.10;0.10;;;;;;;;;;4961720;28;20279;-70
2022/04/06 08:05:12;;;;;;;0.00;0.00;;;;;;;;;;4969759;28;20727;-70
2022/04/06 08:07:43;;;;;;;0.10;0.10;;;;;;;;;;4962861;28;20205;-70
2022/04/06 08:10:11;;;;;;;0.00;0.00;;;;;;;;;;4987947;28;20624;-70
2022/04/06 08:12:39;;;;;;;0.10;0.10;;;;;;;;;;4969444;28;20226;-71
2022/04/06 08:15:06;;;;;;;0.10;0.10;;;;;;;;;;4959078;28;20629;-69
2022/04/06 08:17:34;;;;;;;0.10;0.10;;;;;;;;;;4961798;28;20664;-69
2022/04/06 08:20:03;;;;;;;0.10;0.10;;;;;;;;;;4987558;28;20676;-71
2022/04/06 08:22:31;;;;;;;0.10;0.10;;;;;;;;;;4977626;28;20676;-71
2022/04/06 08:25:00;;;;;;;0.10;0.10;;;;;;;;;;4964843;28;20734;-71
2022/04/06 08:27:28;;;;;;;0.10;0.10;;;;;;;;;;4968089;28;20632;-72
2022/04/06 08:29:55;;;;;;;0.10;0.10;;;;;;;;;;4969726;28;20736;-69
2022/04/06 08:32:23;;;;;;;0.00;0.00;;;;;;;;;;4961804;28;20237;-71
2022/04/06 08:34:50;;;;;;;0.10;0.10;;;;;;;;;;4965661;28;20259;-71
2022/04/06 08:37:18;;;;;;;0.10;0.10;;;;;;;;;;4968728;28;20652;-71
2022/04/06 08:39:45;;;;;;;0.10;0.10;;;;;;;;;;4968196;28;20205;-71
2022/04/06 08:42:14;;;;;;;0.10;0.10;;;;;;;;;;4962500;28;20257;-68
2022/04/06 08:44:41;;;;;;;0.10;0.10;;;;;;;;;;4953428;28;20632;-71
2022/04/06 08:47:09;;;;;;;0.10;0.10;;;;;;;;;;4967892;28;20209;-70
2022/04/06 08:49:36;;;;;;;0.10;0.10;;;;;;;;;;4962205;28;20225;-68
2022/04/06 08:52:04;;;;;;;0.00;0.00;;;10.50;99.90;;;;;;4959169;28;20229;-71
2022/04/06 08:54:31;;;;;;;0.10;0.10;;;11.00;99.90;;;;;;4961648;28;20209;-73
2022/04/06 08:56:58;;;;;;;0.10;0.10;;;11.10;99.90;;;;;;4984582;28;20221;-69
2022/04/06 08:59:26;;;;;;;0.10;0.10;;;11.30;99.90;;;;;;4964737;28;20198;-71
2022/04/06 09:01:53;;;;;;;0.10;0.10;;;11.40;99.90;;;;;;4954173;28;20241;-71
2022/04/06 09:04:21;;;;;;;0.10;0.10;;;11.40;99.90;;;;;;4962184;28;20224;-70
2022/04/06 09:06:48;;;;;;;0.10;0.10;;;11.50;99.90;;;;;;4960277;28;20199;-71
2022/04/06 09:09:22;;;;;;;0.10;0.10;;;11.60;99.90;;;;;;4966847;28;20205;-70
2022/04/06 09:11:49;;;;;;;0.10;0.10;;;11.70;99.90;;;;;;4964380;28;20232;-71
2022/04/06 09:14:17;;;;;;;0.10;0.10;;;;;;;;;;4961850;28;20205;-71
2022/04/06 09:16:45;;;;;;;0.00;0.00;;;12.00;99.90;;;;;;4963488;28;20232;-71
2022/04/06 09:19:16;;;;;;;0.10;0.10;;;12.10;99.90;;;;;;4967512;28;20213;-70
2022/04/06 09:21:45;;;;;;;0.00;0.00;;;12.00;99.90;;;;;;4953629;28;20228;-70
2022/04/06 09:24:16;;;;;;;0.00;0.00;;;11.90;99.90;;;;;;4965352;28;20244;-70
2022/04/06 09:26:43;;;;;;;0.07;0.07;;;11.80;99.90;;;;;;4968484;28;20232;-71
2022/04/06 09:29:13;;;;;;;0.10;0.10;;;11.60;99.90;;;;;;4984636;28;20205;-70
2022/04/06 09:31:41;;;;;;;0.00;0.00;;;11.50;99.90;;;;;;4983177;28;20217;-71
2022/04/06 09:34:12;;;;;;;0.10;0.10;;;11.40;99.90;;;;;;4960869;28;20220;-71
2022/04/06 09:36:39;;;;;;;0.10;0.10;;;11.30;99.90;;;;;;4976233;28;20235;-69
2022/04/06 09:39:07;;;;;;;0.10;0.10;;;11.20;99.90;;;;;;4960855;28;20273;-70
2022/04/06 09:41:34;;;;;;;0.10;0.10;;;11.20;99.90;;;;;;4961838;28;20225;-68
2022/04/06 09:44:08;;;;;;;0.00;0.00;;;11.10;99.90;;;;;;4967482;28;20217;-70
2022/04/06 09:49:25;;;;;;;0.10;0.10;;;11.00;99.90;;;;;;4967539;28;20209;-72
2022/04/06 09:51:53;;;;;;;0.10;0.10;;;10.90;99.90;;;;;;4982658;28;20223;-69
2022/04/06 09:54:21;;;;;;;0.10;0.10;;;10.90;99.90;;;;;;4961720;28;20205;-70
2022/04/06 09:56:48;;;;;;;0.10;0.10;;;10.80;99.90;;;;;;4963253;28;20213;-70
2022/04/06 09:59:16;;;;;;;0.10;0.10;;;10.80;99.90;;;;;;4961648;28;20209;-71
2022/04/06 10:01:49;;;;;;;0.10;0.10;;;10.70;99.90;;;;;;4962725;28;20252;-70
2022/04/06 10:04:21;;;;;;;0.10;0.10;;;10.70;99.90;;;;;;4964489;28;20209;-70
2022/04/06 10:06:50;;;;;;;0.00;0.00;;;10.70;99.90;;;;;;4963722;28;20341;-70
2022/04/06 10:09:17;;;;;;;0.10;0.10;;;10.70;99.90;;;;;;4969273;28;20205;-69
2022/04/06 10:11:45;;;;;;;0.00;0.00;;;10.70;99.90;;;;;;4957385;28;20230;-70
2022/04/06 10:14:12;;;;;;;0.10;0.10;;;10.70;99.90;;;;;;4961145;28;20216;-70
2022/04/06 10:16:40;;;;;;;0.10;0.10;;;10.60;99.90;;;;;;4971770;28;20275;-67
2022/04/06 10:19:13;;;;;;;0.10;0.10;;;10.60;99.90;;;;;;4967571;28;20324;-71
2022/04/06 10:21:45;;;;;;;0.00;0.00;;;10.70;99.90;;;;;;4963122;28;20280;-70
2022/04/06 10:24:25;;;;;;;0.10;0.10;;;10.70;99.90;;;;;;4964932;28;20287;-68
2022/04/06 10:27:04;;;;;;;0.10;0.10;;;10.80;99.90;;;;;;4961550;28;20224;-70
2022/04/06 10:29:31;;;;;;;0.10;0.10;;;10.90;99.90;;;;;;4988589;28;20200;-70
2022/04/06 10:31:58;;;;;;;0.10;0.10;;;11.00;99.90;;;;;;4967039;28;20242;-69
2022/04/06 10:34:29;;;;;;;0.10;0.10;;;11.20;99.90;;;;;;4967738;28;20221;-70
2022/04/06 10:37:07;;;;;;;0.10;0.10;;;11.40;99.90;;;;;;4966832;28;20220;-69
2022/04/06 10:40:00;;;;;;;0.10;0.10;;;11.40;99.90;;;;;;4967729;28;20208;-70
2022/04/06 10:42:35;;;;;;;0.03;0.03;;;11.50;99.90;;;;;;4967175;28;20307;-70
2022/04/06 10:45:05;;;;;;;0.00;0.00;;;11.50;99.90;;;;;;4972548;28;20210;-68
2022/04/06 10:47:32;;;;;;;0.10;0.10;;;11.50;99.90;;;;;;4990387;28;20257;-70
2022/04/06 10:50:18;;;;;;;0.10;0.10;;;;;;;;;;4967114;28;20213;-71
2022/04/06 10:52:46;;;;;;;0.10;0.10;;;;;;;;;;4971203;28;20221;-70
2022/04/06 10:55:22;;;;;;;0.10;0.10;;;11.50;99.90;;;;;;4973114;28;20288;-71
2022/04/06 10:58:01;;;;;;;0.10;0.10;;;11.70;99.90;;;;;;4966396;28;20214;-69
2022/04/06 11:00:28;;;;;;;0.00;0.00;;;11.80;99.90;;;;;;4965170;28;20204;-70
2022/04/06 11:03:02;;;;;;;0.10;0.10;;;11.80;99.90;;;;;;4965647;28;20260;-69
2022/04/06 11:05:50;;;;;;;0.10;0.10;;;11.80;99.90;;;;;;4982936;28;20201;-70
2022/04/06 11:11:39;;;;;;;0.10;0.10;;;;;;;;;;4971282;28;20201;-68
2022/04/06 11:14:07;;;;;;;0.10;0.10;;;;;;;;;;4964499;28;20693;-71
2022/04/06 11:16:44;;;;;;;0.00;0.00;;;;;;;;;;4968462;28;20209;-71
2022/04/06 11:19:12;;;;;;;0.10;0.10;;;;;;;;;;4970172;28;20216;-70
2022/04/06 11:21:51;;;;;;;0.10;0.10;;;;;;;;;;4963492;28;20232;-66
2022/04/06 11:24:22;;;;;;;0.00;0.00;;;;;;;;;;4968313;28;20257;-67
2022/04/06 11:26:51;;;;;;;0.10;0.10;;;;;;;;;;4966233;28;20228;-71
2022/04/06 11:29:19;;;;;;;0.10;0.10;;;;;;;;;;4966140;28;20197;-70
2022/04/06 11:31:56;;;;;;;0.10;0.10;;;;;;;;;;4966929;28;20222;-71
2022/04/06 11:34:36;;;;;;;0.00;0.00;;;;;;;;;;4967224;28;20213;-70
2022/04/06 11:37:04;;;;;;;0.10;0.10;;;;;;;;;;4968567;28;20220;-71
2022/04/06 11:39:32;;;;;;;0.10;0.10;;;;;;;;;;4962282;28;20337;-70
2022/04/06 11:42:02;;;;;;;0.10;0.10;;;;;;;;;;4963092;28;20240;-69
2022/04/06 11:44:30;;;;;;;0.10;0.10;;;;;;;;;;4965196;28;20208;-70
2022/04/06 11:46:58;;;;;;;0.10;0.10;;;;;;;;;;4970267;28;20205;-70
2022/04/06 11:49:26;;;;;;;0.10;0.10;;;;;;;;;;4984872;28;20202;-69
2022/04/06 11:51:54;;;;;;;0.00;0.00;;;;;;;;;;4967342;28;20221;-71
2022/04/06 11:54:22;;;;;;;0.10;0.10;;;;;;;;;;4966313;28;20227;-72
2022/04/06 11:56:50;;;;;;;0.00;0.00;;;;;;;;;;4962224;28;20201;-70
2022/04/06 11:59:19;;;;;;;0.00;0.00;;;;;;;;;;4968015;28;20264;-71
2022/04/06 12:01:47;;;;;;;0.10;0.10;;;;;;;;;;4960702;28;20221;-70
2022/04/06 12:04:16;;;;;;;0.00;0.00;;;;;;;;;;4968922;28;20577;-71
2022/04/06 12:06:44;;;;;;;0.10;0.10;;;;;;;;;;4961453;28;20197;-70
2022/04/06 12:09:12;;;;;;;0.00;0.00;;;;;;;;;;4970266;28;20197;-71
2022/04/06 12:11:39;;;;;;;0.10;0.10;;;;;;;;;;4965443;28;20658;-71
2022/04/06 12:14:10;;;;;;;0.10;0.10;;;;;;;;;;4984003;28;20201;-71
2022/04/06 12:16:40;;;;;;;0.00;0.00;;;;;;;;;;4970433;28;20236;-69
2022/04/06 12:19:13;;;;;;;0.00;0.00;;;;;;;;;;4969757;28;20229;-70
2022/04/06 12:21:42;;;;;;;0.10;0.10;;;;;;;;;;4962511;28;20593;-71
2022/04/06 12:24:11;;;;;;;0.00;0.00;;;;;;;;;;4961968;28;20205;-70
2022/04/06 12:26:45;;;;;;;0.10;0.10;;;;;;;;;;4969523;28;20687;-69
2022/04/06 12:29:14;;;;;;;0.00;0.00;;;;;;;;;;4962645;28;20216;-68
2022/04/06 12:31:43;;;;;;;0.00;0.00;;;;;;;;;;4987647;28;20764;-71
2022/04/06 12:34:27;;;;;;;0.00;0.00;;;;;;;;;;4966524;28;20220;-69
2022/04/06 12:36:54;;;;;;;0.10;0.10;;;;;;;;;;4980368;28;20255;-70
2022/04/06 12:39:21;;;;;;;0.10;0.10;;;;;;;;;;4965501;28;20244;-70
2022/04/06 12:41:53;;;;;;;0.10;0.10;;;;;;;;;;4960874;28;20212;-70
2022/04/06 12:44:21;;;;;;;0.00;0.00;;;;;;;;;;4962570;28;20586;-70
2022/04/06 12:46:50;;;;;;;0.10;0.10;;;;;;;;;;4968588;28;20221;-71
2022/04/06 12:49:25;;;;;;;0.10;0.10;;;;;;;;;;4970807;28;20201;-69
2022/04/06 12:52:10;;;;;;;0.00;0.00;;;;;;;;;;4968395;28;20310;-70
2022/04/06 12:54:39;;;;;;;0.00;0.00;;;;;;;;;;4970566;28;20296;-72
2022/04/06 12:57:08;;;;;;;0.00;0.00;;;;;;;;;;4965158;28;20201;-72
2022/04/06 12:59:38;;;;;;;0.10;0.10;;;;;;;;;;4962564;28;20225;-71
2022/04/06 13:02:18;;;;;;;0.00;0.00;;;;;;;;;;4965676;28;20320;-70
2022/04/06 13:04:46;;;;;;;0.10;0.10;;;;;;;;;;4966399;28;20212;-70
2022/04/06 13:07:13;;;;;;;0.07;0.07;;;;;;;;;;4968578;28;20488;-69
2022/04/06 13:09:48;;;;;;;0.10;0.10;;;;;;;;;;4963368;28;20205;-71
2022/04/06 13:12:15;;;;;;;0.00;0.00;;;;;;;;;;4965868;28;20275;-71
2022/04/06 13:14:43;;;;;;;0.10;0.10;;;;;;;;;;4983090;28;20719;-69
2022/04/06 13:17:11;;;;;;;0.10;0.10;;;;;;;;;;4965067;28;20245;-70
2022/04/06 13:19:39;;;;;;;0.10;0.10;;;;;;;;;;4965037;28;20226;-70
2022/04/06 13:22:06;;;;;;;0.10;0.10;;;;;;;;;;4966882;28;20217;-70
2022/04/06 13:24:33;;;;;;;0.10;0.10;;;;;;;;;;4985963;28;20212;-70
2022/04/06 13:27:01;;;;;;;0.03;0.03;;;;;;;;;;4967015;28;20259;-70
2022/04/06 13:29:30;;;;;;;0.10;0.10;;;;;;;;;;4964353;28;20206;-71
2022/04/06 13:31:57;;;;;;;0.00;0.00;;;;;;;;;;4968293;28;20225;-71
2022/04/06 13:34:26;;;;;;;0.10;0.10;;;;;;;;;;4984020;23;20231;-66
2022/04/06 13:36:53;;;;;;;0.00;0.00;;;;;;;;;;5005725;28;20274;-67
2022/04/06 13:39:21;;;;;;;0.10;0.10;;;;;;;;;;5005102;28;20240;-67
2022/04/06 13:41:52;;;;;;;0.00;0.00;;;;;;;;;;5009471;28;20275;-67
2022/04/06 13:44:21;;;;;;;0.00;0.00;;;;;;;;;;5011953;28;20228;-67
2022/04/06 13:46:51;;;;;;;0.00;0.00;;;;;;;;;;5004314;28;20196;-67
2022/04/06 13:49:18;;;;;;;0.10;0.10;;;;;;;;;;5012909;28;20215;-67
2022/04/06 13:51:47;;;;;;;0.10;0.10;;;;;;;;;;5012973;28;20200;-67
2022/04/06 13:54:14;;;;;;;0.00;0.00;;;;;;;;;;5008927;28;20232;-67
2022/04/06 13:56:41;;;;;;;0.00;0.00;;;;;;;;;;5007534;28;20207;-67
2022/04/06 13:59:09;;;;;;;0.03;0.03;;;;;;;;;;5008293;28;20220;-67
2022/04/06 14:01:36;;;;;;;0.00;0.00;;;;;;;;;;4998660;28;20207;-67
2022/04/06 14:04:04;;;;;;;0.10;0.10;;;;;;;;;;5016074;28;20762;-67
2022/04/06 14:06:31;;;;;;;0.00;0.00;;;11.90;99.90;;;;;;4995220;28;20292;-67
2022/04/06 14:08:59;;;;;;;0.00;0.00;;;12.60;99.90;;;;;;5015777;28;20695;-68
2022/04/06 14:11:28;;;;;;;0.00;0.00;;;12.60;99.90;;;;;;4998331;28;20204;-67
2022/04/06 14:13:55;;;;;;;0.10;0.10;;;12.70;99.90;;;;;;5002257;28;20247;-70
2022/04/06 14:16:23;;;;;;;0.10;0.10;;;;;;;;;;5008205;28;20291;-70
2022/04/06 14:18:52;;;;;;;0.00;0.00;;;;;;;;;;5001415;28;20319;-71
2022/04/06 14:21:19;;;;;;;0.10;0.10;;;;;;;;;;5022612;28;20224;-70
2022/04/06 14:23:47;;;;;;;0.10;0.10;;;;;;;;;;5007109;28;20216;-67
2022/04/06 14:26:15;;;;;;;0.00;0.00;;;;;;;;;;5007686;28;20213;-69
2022/04/06 14:28:43;;;;;;;0.10;0.10;;;;;;;;;;5002802;28;20283;-67
2022/04/06 14:31:10;;;;;;;0.10;0.10;;;;;;;;;;4995863;28;20197;-67
2022/04/06 14:33:37;;;;;;;0.00;0.00;;;;;;;;;;5003979;28;20205;-67
2022/04/06 14:36:05;;;;;;;0.00;0.00;;;;;;;;;;5001750;28;20212;-68
2022/04/06 14:38:32;;;;;;;0.00;0.00;;;;;;;;;;5005299;28;21417;-68
2022/04/06 14:40:59;;;;;;;0.00;0.00;;;;;;;;;;5008181;28;20295;-68
2022/04/06 14:43:28;;;;;;;0.00;0.00;;;;;;;;;;4997651;28;20643;-68
2022/04/06 14:45:56;;;;;;;0.00;0.00;;;;;;;;;;5005694;28;20207;-68
2022/04/06 14:48:23;;;;;;;0.10;0.10;;;;;;;;;;5005368;28;20216;-69
2022/04/06 14:50:51;;;;;;;0.00;0.00;;;;;;;;;;5007765;28;20779;-68
2022/04/06 14:53:19;;;;;;;0.00;0.00;;;;;;;;;;5003840;28;20201;-69
2022/04/06 14:55:46;;;;;;;0.10;0.10;;;;;;;;;;5003753;28;20219;-68
2022/04/06 14:58:14;;;;;;;0.10;0.10;;;;;;;;;;5013595;28;20213;-68